Time;durP1;ratioP1;P1;durP2;ratioP2;P2;SDS_P1;SDS_P2;PMS_P1;PMS_P2;Temp;Humidity;BMP_temperature;BMP_pressure;BME280_temperature;BME280_humidity;BME280_pressure;Samples;Min_cycle;Max_cycle;Signal;HPM_P1;HPM_P2
2023/03/25 00:01:01;;;;;;;5.07;1.40;;;;;;;8.63;100.00;100197.94;5070253;28;20044;-37
2023/03/25 00:03:29;;;;;;;3.75;1.48;;;;;;;8.62;100.00;100183.63;5069726;28;20029;-36
2023/03/25 00:05:56;;;;;;;4.78;1.42;;;;;;;8.65;100.00;100204.75;5069731;28;20056;-36
2023/03/25 00:08:24;;;;;;;5.07;1.38;;;;;;;8.64;100.00;100199.59;5070376;28;20075;-36
2023/03/25 00:10:59;;;;;;;10.13;2.38;;;;;;;8.67;100.00;100207.19;5070359;28;20116;-36
2023/03/25 00:13:26;;;;;;;5.47;1.40;;;;;;;8.66;100.00;100201.00;5058679;28;20031;-36
2023/03/25 00:15:52;;;;;;;5.97;1.40;;;;;;;8.69;100.00;100199.72;5056348;28;20025;-36
2023/03/25 00:18:20;;;;;;;8.63;2.05;;;;;;;8.69;100.00;100210.50;5056176;28;20033;-36
2023/03/25 00:20:48;;;;;;;8.88;1.75;;;;;;;8.71;100.00;100202.97;5056724;28;20056;-36
2023/03/25 00:23:17;;;;;;;6.55;1.70;;;;;;;8.74;100.00;100210.63;5056881;28;20021;-36
2023/03/25 00:25:46;;;;;;;5.95;1.63;;;;;;;8.73;100.00;100206.25;5056634;28;20064;-36
2023/03/25 00:28:12;;;;;;;5.95;1.50;;;;;;;8.74;100.00;100197.13;5056280;28;20051;-36
2023/03/25 00:30:38;;;;;;;7.47;1.60;;;;;;;8.75;100.00;100206.84;5056351;28;20492;-36
2023/03/25 00:33:04;;;;;;;;;;;;;;;8.79;100.00;100201.81;5056667;28;20021;-36
2023/03/25 00:35:29;;;;;;;5.00;1.40;;;;;;;8.77;100.00;100204.75;5055952;28;19909;-36
2023/03/25 00:37:59;;;;;;;4.55;1.30;;;;;;;8.73;100.00;100207.06;5055532;28;20112;-36
2023/03/25 00:40:34;;;;;;;6.05;2.20;;;;;;;8.76;100.00;100205.78;5055801;28;20083;-36
2023/03/25 00:43:01;;;;;;;5.72;1.33;;;;;;;8.75;100.00;100214.94;5056037;28;20035;-36
2023/03/25 00:45:27;;;;;;;6.53;1.92;;;;;;;8.74;100.00;100224.09;5056059;28;20401;-36
2023/03/25 00:47:53;;;;;;;5.13;2.10;;;;;;;8.74;100.00;100214.13;5055406;28;20043;-36
2023/03/25 00:50:19;;;;;;;9.98;1.75;;;;;;;8.71;100.00;100208.38;5055386;28;20025;-36
2023/03/25 00:52:45;;;;;;;6.72;1.60;;;;;;;8.66;100.00;100192.09;5055614;28;20380;-36
2023/03/25 00:55:10;;;;;;;5.23;1.63;;;;;;;8.73;100.00;100198.16;5055666;28;20029;-36
2023/03/25 00:57:35;;;;;;;6.83;1.47;;;;;;;8.68;100.00;100203.44;5055301;28;20496;-36
2023/03/25 01:00:05;;;;;;;7.25;2.10;;;;;;;8.70;100.00;100201.34;5055840;28;20029;-36
2023/03/25 01:02:32;;;;;;;5.70;1.48;;;;;;;8.69;100.00;100207.81;5056042;28;20102;-36
2023/03/25 01:04:58;;;;;;;8.15;1.60;;;;;;;8.68;100.00;100204.25;5055306;28;20510;-36
2023/03/25 01:07:24;;;;;;;7.15;2.20;;;;;;;8.67;100.00;100199.94;5055138;28;20025;-36
2023/03/25 01:09:50;;;;;;;4.82;1.50;;;;;;;8.66;100.00;100208.25;5055302;28;20166;-37
2023/03/25 01:12:17;;;;;;;4.90;1.57;;;;;;;8.67;100.00;100204.50;5055489;28;20041;-36
2023/03/25 01:14:43;;;;;;;7.03;1.52;;;;;;;8.60;100.00;100195.72;5054891;28;20291;-36
2023/03/25 01:17:10;;;;;;;5.05;2.03;;;;;;;8.67;100.00;100215.28;5055923;28;20064;-36
2023/03/25 01:19:35;;;;;;;5.53;1.92;;;;;;;8.57;100.00;100197.00;5054169;28;20031;-36
2023/03/25 01:22:01;;;;;;;7.17;1.93;;;;;;;8.58;100.00;100209.41;5054720;28;20037;-36
2023/03/25 01:24:26;;;;;;;4.07;1.53;;;;;;;8.56;100.00;100199.94;5054324;28;20282;-36
2023/03/25 01:26:51;;;;;;;4.50;1.40;;;;;;;8.52;100.00;100200.38;5055828;28;20124;-36
2023/03/25 01:29:20;;;;;;;3.10;1.13;;;;;;;8.54;100.00;100207.41;5055439;28;20275;-36
2023/03/25 01:31:46;;;;;;;4.97;1.52;;;;;;;8.55;100.00;100204.50;5054845;28;20114;-36
2023/03/25 01:34:12;;;;;;;5.90;1.20;;;;;;;8.50;100.00;100204.38;5053870;28;20032;-37
2023/03/25 01:36:45;;;;;;;4.55;1.35;;;;;;;8.50;100.00;100212.47;5054530;28;20592;-36
2023/03/25 01:39:11;;;;;;;6.43;1.67;;;;;;;8.42;100.00;100188.56;5054707;28;20104;-37
2023/03/25 01:41:36;;;;;;;;;;;;;;;8.49;100.00;100206.25;5055023;28;20469;-36
2023/03/25 01:44:28;;;;;;;6.75;2.05;;;;;;;8.38;100.00;100207.03;5054657;28;19920;-36
2023/03/25 01:46:55;;;;;;;5.85;1.58;;;;;;;8.29;100.00;100203.00;5054551;28;20036;-36
2023/03/25 01:49:32;;;;;;;4.10;1.30;;;;;;;8.29;100.00;100199.50;5054172;28;20465;-36
2023/03/25 01:52:04;;;;;;;5.22;1.52;;;;;;;8.29;100.00;100199.50;5055023;28;20037;-36
2023/03/25 01:54:29;;;;;;;3.83;1.65;;;;;;;8.26;100.00;100204.31;5054708;28;20084;-36
2023/03/25 01:56:55;;;;;;;4.30;1.25;;;;;;;8.23;100.00;100201.25;5054419;28;20028;-36
2023/03/25 01:59:27;;;;;;;6.70;1.95;;;;;;;8.18;100.00;100193.88;5054308;28;20104;-36
2023/03/25 02:01:54;;;;;;;4.57;1.48;;;;;;;8.17;100.00;100194.09;5054036;28;20053;-36
2023/03/25 02:04:42;;;;;;;5.70;1.55;;;;;;;8.11;100.00;100181.56;5069752;28;20032;-36
2023/03/25 02:07:10;;;;;;;7.65;1.50;;;;;;;8.01;100.00;100176.75;5054473;28;20082;-36
2023/03/25 02:09:36;;;;;;;3.83;1.30;;;;;;;8.07;100.00;100191.97;5054393;28;20487;-36
2023/03/25 02:12:02;;;;;;;3.15;1.20;;;;;;;8.06;100.00;100189.53;5054354;28;20479;-37
2023/03/25 02:14:30;;;;;;;4.70;1.53;;;;;;;7.92;100.00;100173.56;5054080;28;20104;-36
2023/03/25 02:17:24;;;;;;;4.45;1.15;;;;;;;8.00;100.00;100191.22;5053815;28;20255;-36
2023/03/25 02:20:17;;;;;;;6.40;1.40;;;;;;;7.99;100.00;100186.91;5054555;28;20017;-36
2023/03/25 02:23:16;;;;;;;3.80;1.17;;;;;;;7.99;100.00;100179.66;5053939;28;20031;-36
2023/03/25 02:26:15;;;;;;;7.90;1.88;;;;;;;7.95;100.00;100189.25;5053857;28;20028;-36
2023/03/25 02:28:51;;;;;;;4.50;1.35;;;;;;;7.94;100.00;100184.09;5054136;28;20036;-36
2023/03/25 02:31:35;;;;;;;4.45;1.30;;;;;;;7.87;100.00;100186.06;5053551;28;20488;-36
2023/03/25 02:34:06;;;;;;;3.78;1.33;;;;;;;7.89;100.00;100192.03;5053735;28;20055;-36
2023/03/25 02:37:02;;;;;;;2.97;0.90;;;;;;;7.88;100.00;100193.91;5054039;28;20025;-36
2023/03/25 02:39:52;;;;;;;7.63;1.58;;;;;;;7.84;100.00;100190.03;5053700;28;20132;-36
2023/03/25 02:42:32;;;;;;;6.55;1.30;;;;;;;7.71;100.00;100174.91;5053583;28;20478;-36
2023/03/25 02:45:06;;;;;;;3.08;1.20;;;;;;;7.77;100.00;100180.41;5053656;28;20036;-36
2023/03/25 02:47:41;;;;;;;5.20;1.38;;;;;;;7.74;100.00;100179.00;5053304;28;20028;-36
2023/03/25 02:50:25;;;;;;;5.47;1.65;;;;;;;7.75;100.00;100172.53;5054368;28;20468;-36
2023/03/25 02:52:56;;;;;;;4.40;1.58;;;;;;;7.72;100.00;100163.06;5053782;28;20100;-36
2023/03/25 02:55:24;;;;;;;4.50;1.33;;;;;;;7.75;100.00;100156.41;5053436;28;20029;-36
2023/03/25 02:57:53;;;;;;;4.53;1.48;;;;;;;7.82;100.00;100164.41;5053406;28;20384;-36
2023/03/25 03:00:25;;;;;;;7.60;1.95;;;;;;;7.82;100.00;100167.91;5053121;28;20503;-36
2023/03/25 03:02:58;;;;;;;5.70;1.50;;;;;;;7.84;100.00;100160.41;5053697;28;20100;-36
2023/03/25 03:05:32;;;;;;;4.63;1.50;;;;;;;7.85;100.00;100159.34;5053391;28;20029;-36
2023/03/25 03:08:05;;;;;;;5.13;1.92;;;;;;;7.83;100.00;100153.38;5053342;28;20025;-36
2023/03/25 03:10:51;;;;;;;4.35;1.42;;;;;;;7.79;100.00;100148.69;5053887;28;20373;-36
2023/03/25 03:13:50;;;;;;;5.07;1.20;;;;;;;7.81;100.00;100163.56;5053400;28;20225;-36
2023/03/25 03:16:43;;;;;;;4.97;1.48;;;;;;;7.82;100.00;100167.09;5053323;28;20171;-36
2023/03/25 03:19:14;;;;;;;4.03;1.50;;;;;;;7.78;100.00;100158.66;5054066;28;20029;-36
2023/03/25 03:21:50;;;;;;;5.88;1.70;;;;;;;7.73;100.00;100158.50;5053497;28;20025;-37
2023/03/25 03:24:35;;;;;;;7.15;1.63;;;;;;;7.79;100.00;100170.22;5053587;28;20060;-37
2023/03/25 03:27:31;;;;;;;5.38;1.77;;;;;;;7.76;100.00;100168.84;5053209;28;20021;-36
2023/03/25 03:30:06;;;;;;;9.38;2.38;;;;;;;7.61;100.00;100144.19;5053679;28;20037;-36
2023/03/25 03:32:42;;;;;;;7.80;1.75;;;;;;;7.61;100.00;100154.94;5053123;28;20029;-36
2023/03/25 03:35:19;;;;;;;5.32;1.65;;;;;;;7.67;100.00;100175.59;5053103;28;20036;-36
2023/03/25 03:37:51;;;;;;;6.13;1.88;;;;;;;7.65;100.00;100174.97;5053064;28;20477;-36
2023/03/25 03:40:20;;;;;;;5.22;1.77;;;;;;;7.64;100.00;100176.03;5053789;28;20366;-36
2023/03/25 03:43:04;;;;;;;7.63;1.80;;;;;;;7.63;100.00;100169.00;5052946;28;20033;-36
2023/03/25 03:45:41;;;;;;;6.20;1.60;;;;;;;7.62;100.00;100159.28;5053017;28;20483;-36
2023/03/25 03:48:17;;;;;;;8.88;1.88;;;;;;;7.63;100.00;100156.38;5055503;28;20133;-36
2023/03/25 03:50:51;;;;;;;6.43;1.87;;;;;;;7.63;100.00;100153.69;5056849;28;20107;-36
2023/03/25 03:53:20;;;;;;;9.90;2.33;;;;;;;7.60;100.00;100147.94;5056724;28;20029;-36
2023/03/25 03:55:51;;;;;;;7.63;2.08;;;;;;;7.67;100.00;100164.81;5057033;28;20068;-36
2023/03/25 03:58:27;;;;;;;8.35;2.38;;;;;;;7.61;100.00;100147.72;5056946;28;20025;-36
2023/03/25 04:00:52;;;;;;;6.15;1.95;;;;;;;7.70;100.00;100153.56;5056450;28;20045;-36
2023/03/25 04:03:23;;;;;;;6.77;2.07;;;;;;;7.64;100.00;100139.16;5057160;28;20039;-36
2023/03/25 04:05:59;;;;;;;9.65;2.47;;;;;;;7.66;100.00;100144.31;5056801;28;20419;-36
2023/03/25 04:08:33;;;;;;;5.72;1.45;;;;;;;7.74;100.00;100154.75;5057033;28;20037;-36
2023/03/25 04:11:03;;;;;;;6.55;1.52;;;;;;;7.76;100.00;100152.69;5056460;28;20033;-36
2023/03/25 04:13:34;;;;;;;7.72;2.10;;;;;;;7.76;100.00;100147.31;5056622;28;20029;-36
2023/03/25 04:16:00;;;;;;;6.90;1.77;;;;;;;7.76;100.00;100163.44;5056589;28;20028;-36
2023/03/25 04:18:27;;;;;;;5.40;1.42;;;;;;;7.75;100.00;100157.22;5056332;28;20083;-36
2023/03/25 04:20:53;;;;;;;7.85;1.80;;;;;;;7.77;100.00;100151.63;5056150;28;20488;-36
2023/03/25 04:23:20;;;;;;;;;;;;;;;7.82;100.00;100161.72;5056325;28;20481;-36
2023/03/25 04:25:54;;;;;;;7.00;1.87;;;;;;;7.76;100.00;100155.38;5055933;28;19959;-36
2023/03/25 04:28:19;;;;;;;7.88;2.30;;;;;;;7.75;100.00;100153.72;5056406;28;20259;-36
2023/03/25 04:30:45;;;;;;;7.87;1.90;;;;;;;7.74;100.00;100160.97;5056099;28;20033;-36
2023/03/25 04:33:12;;;;;;;5.75;1.30;;;;;;;7.76;100.00;100163.44;5055662;28;20025;-36
2023/03/25 04:35:37;;;;;;;;;;;;;;;7.80;100.00;100170.00;5056349;28;20037;-36
2023/03/25 04:38:04;;;;;;;4.35;1.52;;;;;;;7.77;100.00;100166.97;5055840;28;19915;-36
2023/03/25 04:40:30;;;;;;;4.35;1.33;;;;;;;7.80;100.00;100169.16;5056066;28;20441;-36
2023/03/25 04:42:55;;;;;;;4.53;1.70;;;;;;;7.76;100.00;100174.22;5055804;28;20060;-36
2023/03/25 04:45:21;;;;;;;4.93;1.38;;;;;;;7.75;100.00;100172.53;5056415;28;20064;-36
2023/03/25 04:47:48;;;;;;;7.38;1.65;;;;;;;7.72;100.00;100164.94;5055662;28;20116;-36
2023/03/25 04:50:23;;;;;;;6.75;2.17;;;;;;;7.73;100.00;100177.34;5055955;28;20037;-36
2023/03/25 04:52:49;;;;;;;9.13;1.95;;;;;;;7.73;100.00;100174.66;5056100;28;20033;-36
2023/03/25 04:55:18;;;;;;;6.97;1.48;;;;;;;7.75;100.00;100175.25;5056403;28;20108;-36
2023/03/25 04:57:47;;;;;;;6.15;1.50;;;;;;;7.72;100.00;100168.47;5055441;28;20074;-36
2023/03/25 05:00:15;;;;;;;4.90;1.48;;;;;;;7.73;100.00;100172.78;5055631;28;20083;-36
2023/03/25 05:02:49;;;;;;;9.77;2.45;;;;;;;7.71;100.00;100172.22;5055365;28;20043;-36
2023/03/25 05:05:17;;;;;;;6.45;1.60;;;;;;;7.69;100.00;100168.91;5056001;28;20033;-36
2023/03/25 05:07:48;;;;;;;5.68;1.40;;;;;;;7.60;100.00;100175.66;5055296;28;20036;-36
2023/03/25 05:10:15;;;;;;;4.85;1.35;;;;;;;7.59;100.00;100176.72;5055591;28;20040;-36
2023/03/25 05:12:40;;;;;;;6.50;1.50;;;;;;;7.58;100.00;100188.53;5054977;28;20033;-36
2023/03/25 05:15:07;;;;;;;5.22;1.48;;;;;;;7.56;100.00;100184.41;5055528;28;20098;-36
2023/03/25 05:17:32;;;;;;;4.57;1.60;;;;;;;7.49;100.00;100163.78;5055674;28;20048;-36
2023/03/25 05:19:58;;;;;;;6.87;1.77;;;;;;;7.51;100.00;100186.94;5055973;28;20450;-36
2023/03/25 05:22:23;;;;;;;4.47;1.47;;;;;;;7.51;100.00;100176.19;5053702;28;20032;-36
2023/03/25 05:24:52;;;;;;;6.17;1.97;;;;;;;7.44;100.00;100176.28;5055614;28;20040;-36
2023/03/25 05:27:19;;;;;;;4.70;1.40;;;;;;;7.46;100.00;100179.56;5054572;28;20501;-36
2023/03/25 05:29:44;;;;;;;5.35;1.63;;;;;;;7.36;100.00;100163.97;5054897;28;20036;-36
2023/03/25 05:32:12;;;;;;;8.57;2.00;;;;;;;7.44;100.00;100182.50;5055372;28;20032;-36
2023/03/25 05:34:38;;;;;;;7.40;1.88;;;;;;;7.41;100.00;100176.72;5054488;28;20037;-36
2023/03/25 05:37:04;;;;;;;8.05;1.77;;;;;;;7.37;100.00;100162.94;5055582;28;20039;-36
2023/03/25 05:39:30;;;;;;;5.10;1.25;;;;;;;7.42;100.00;100181.91;5055062;28;20035;-36
2023/03/25 05:42:01;;;;;;;8.43;1.65;;;;;;;7.47;100.00;100183.91;5054567;28;20446;-36
2023/03/25 05:44:27;;;;;;;5.30;1.67;;;;;;;7.47;100.00;100178.53;5055201;28;20025;-36
2023/03/25 05:46:52;;;;;;;6.15;1.75;;;;;;;7.46;100.00;100193.81;5055218;28;20107;-36
2023/03/25 05:49:17;;;;;;;6.13;1.73;;;;;;;7.46;100.00;100172.31;5054256;28;20055;-36
2023/03/25 05:51:43;;;;;;;9.33;2.27;;;;;;;7.45;100.00;100191.38;5054532;28;20033;-36
2023/03/25 05:54:09;;;;;;;5.00;2.05;;;;;;;7.47;100.00;100194.69;5054428;28;20029;-36
2023/03/25 05:56:35;;;;;;;7.18;1.90;;;;;;;7.50;100.00;100191.50;5055251;28;20503;-37
2023/03/25 05:59:02;;;;;;;3.95;1.60;;;;;;;7.49;100.00;100196.06;5054351;28;20075;-36
2023/03/25 06:01:27;;;;;;;6.32;1.90;;;;;;;7.52;100.00;100204.75;5054209;28;20106;-35
2023/03/25 06:03:53;;;;;;;4.57;1.63;;;;;;;7.54;100.00;100210.72;5054298;28;20416;-35
2023/03/25 06:06:18;;;;;;;5.90;2.13;;;;;;;7.57;100.00;100207.59;5054618;28;20108;-35
2023/03/25 06:08:49;;;;;;;6.23;1.63;;;;;;;7.58;100.00;100209.22;5053946;28;20025;-36
2023/03/25 06:11:16;;;;;;;6.25;1.90;;;;;;;7.58;100.00;100218.13;5053375;28;20267;-36
2023/03/25 06:13:48;;;;;;;5.35;1.65;;;;;;;7.52;100.00;100202.88;5053769;28;20024;-36
2023/03/25 06:16:17;;;;;;;10.15;2.08;;;;;;;7.54;100.00;100214.22;5054347;28;20033;-36
2023/03/25 06:18:43;;;;;;;4.63;1.60;;;;;;;7.61;100.00;100211.44;5053983;28;20100;-36
2023/03/25 06:21:10;;;;;;;8.60;1.83;;;;;;;7.60;100.00;100217.88;5053979;28;20021;-36
2023/03/25 06:23:38;;;;;;;5.72;1.70;;;;;;;7.60;100.00;100216.00;5054460;28;20032;-36
2023/03/25 06:26:04;;;;;;;8.02;1.73;;;;;;;7.63;100.00;100212.06;5054474;28;20113;-36
2023/03/25 06:28:29;;;;;;;;;;;;;;;7.67;100.00;100210.56;5054507;28;20025;-36
2023/03/25 06:30:55;;;;;;;7.38;1.77;;;;;;;7.66;100.00;100206.22;5054631;28;19909;-36
2023/03/25 06:33:21;;;;;;;8.25;1.88;;;;;;;7.65;100.00;100210.78;5053457;28;20036;-35
2023/03/25 06:35:52;;;;;;;5.40;1.60;;;;;;;7.65;100.00;100208.06;5054332;28;20025;-35
2023/03/25 06:38:18;;;;;;;7.60;1.95;;;;;;;7.70;100.00;100218.97;5054272;28;20071;-35
2023/03/25 06:40:43;;;;;;;;;;;;;;;7.77;100.00;100212.72;5054304;28;20076;-35
2023/03/25 06:43:09;;;;;;;5.07;1.50;;;;;;;7.77;100.00;100216.22;5053630;28;20339;-35
2023/03/25 06:45:34;;;;;;;7.63;2.10;;;;;;;7.78;100.00;100231.31;5053375;28;20759;-35
2023/03/25 06:48:00;;;;;;;6.57;1.67;;;;;;;7.83;100.00;100230.63;5053573;28;20102;-35
2023/03/25 06:50:25;;;;;;;9.13;2.00;;;;;;;7.81;100.00;100209.34;5053597;28;20032;-35
2023/03/25 06:52:51;;;;;;;8.50;1.95;;;;;;;7.89;100.00;100222.47;5054066;28;20128;-36
2023/03/25 06:55:16;;;;;;;8.17;2.20;;;;;;;7.92;100.00;100226.59;5053507;28;20025;-35
2023/03/25 06:57:42;;;;;;;11.60;2.13;;;;;;;7.94;100.00;100233.38;5053542;28;20271;-35
2023/03/25 07:00:10;;;;;;;6.40;2.05;;;;;;;7.95;100.00;100228.78;5054224;28;20116;-36
2023/03/25 07:02:36;;;;;;;7.47;2.00;;;;;;;7.92;100.00;100218.50;5053940;28;20053;-35
2023/03/25 07:05:02;;;;;;;7.47;1.90;;;;;;;8.01;100.00;100233.28;5053417;28;20120;-36
2023/03/25 07:07:28;;;;;;;7.85;2.17;;;;;;;8.05;100.00;100223.69;5053042;28;20044;-34
2023/03/25 07:09:54;;;;;;;9.90;2.50;;;;;;;8.05;100.00;100220.16;5053395;28;20040;-35
2023/03/25 07:12:21;;;;;;;11.05;2.85;;;;;;;8.09;100.00;100224.88;5051887;28;20469;-35
2023/03/25 07:14:51;;;;;;;10.13;2.33;;;;;;;8.06;100.00;100213.75;5053833;28;20033;-35
2023/03/25 07:17:16;;;;;;;7.75;2.05;;;;;;;8.14;100.00;100218.78;5052949;28;20461;-35
2023/03/25 07:19:42;;;;;;;10.53;2.43;;;;;;;8.17;100.00;100218.34;5052961;28;20049;-35
2023/03/25 07:22:08;;;;;;;9.73;2.30;;;;;;;8.26;100.00;100230.44;5053458;28;20362;-36
2023/03/25 07:24:33;;;;;;;8.95;2.72;;;;;;;8.33;100.00;100227.63;5057483;28;20056;-36
2023/03/25 07:26:58;;;;;;;7.57;2.47;;;;;;;8.41;100.00;100240.81;5056875;28;20033;-35
2023/03/25 07:29:24;;;;;;;8.23;2.30;;;;;;;8.42;100.00;100245.13;5055745;28;20031;-36
2023/03/25 07:31:49;;;;;;;9.07;2.67;;;;;;;8.21;100.00;100216.84;5056851;28;20075;-36
2023/03/25 07:34:14;;;;;;;6.67;1.97;;;;;;;8.14;100.00;100222.31;5056783;28;20509;-36
2023/03/25 07:36:40;;;;;;;9.07;2.40;;;;;;;8.18;100.00;100238.84;5056714;28;20113;-36
2023/03/25 07:39:06;;;;;;;8.87;2.20;;;;;;;8.09;100.00;100232.94;5057349;28;20028;-36
2023/03/25 07:41:32;;;;;;;12.80;3.17;;;;;;;8.06;100.00;100236.13;5057067;28;20025;-36
2023/03/25 07:43:57;;;;;;;10.75;2.33;;;;;;;8.10;100.00;100249.91;5057156;28;20040;-35
2023/03/25 07:46:23;;;;;;;10.77;3.17;;;;;;;7.99;100.00;100233.50;5057205;28;20060;-36
2023/03/25 07:48:48;;;;;;;7.65;2.33;;;;;;;8.03;100.00;100254.59;5057101;28;20271;-36
2023/03/25 07:51:14;;;;;;;10.20;2.50;;;;;;;8.06;100.00;100254.16;5057095;28;20412;-36
2023/03/25 07:53:43;;;;;;;10.32;2.22;;;;;;;8.06;100.00;100249.59;5056659;28;20028;-35
2023/03/25 07:56:09;;;;;;;9.63;2.40;;;;;;;8.04;100.00;100256.22;5056420;28;20033;-36
2023/03/25 07:58:34;;;;;;;9.63;2.35;;;;;;;8.13;100.00;100261.06;5056631;28;20025;-36
2023/03/25 08:01:00;;;;;;;13.00;3.28;;;;;;;8.17;100.00;100258.75;5057039;28;20484;-36
2023/03/25 08:03:26;;;;;;;13.90;2.80;;;;;;;8.16;100.00;100260.63;5056573;28;20393;-35
2023/03/25 08:05:52;;;;;;;9.35;2.65;;;;;;;8.09;100.00;100257.19;5057306;28;20025;-36
2023/03/25 08:08:17;;;;;;;11.90;3.00;;;;;;;8.15;100.00;100268.91;5056455;28;20032;-36
2023/03/25 08:10:43;;;;;;;11.63;2.60;;;;;;;8.20;100.00;100275.28;5056694;28;20094;-36
2023/03/25 08:13:09;;;;;;;;;;;;;;;8.27;100.00;100273.28;5056709;28;20029;-36
2023/03/25 08:15:34;;;;;;;12.45;3.05;;;;;;;8.20;100.00;100280.66;5056336;28;19962;-36
2023/03/25 08:18:01;;;;;;;13.83;2.70;;;;;;;8.13;100.00;100287.19;5055915;28;20032;-36
2023/03/25 08:20:27;;;;;;;10.57;2.58;;;;;;;8.09;100.00;100289.50;5056108;28;20405;-36
2023/03/25 08:22:52;;;;;;;12.40;2.50;;;;;;;8.08;100.00;100295.13;5055821;28;20037;-36
2023/03/25 08:25:17;;;;;;;10.43;2.53;;;;;;;8.07;100.00;100280.03;5056500;28;20031;-36
2023/03/25 08:27:43;;;;;;;13.17;3.00;;;;;;;8.08;100.00;100295.13;5056072;28;20025;-36
2023/03/25 08:30:09;;;;;;;8.50;2.27;;;;;;;8.06;100.00;100281.06;5056422;28;20029;-36
2023/03/25 08:32:35;;;;;;;11.10;3.42;;;;;;;8.16;100.00;100298.31;5056269;28;20112;-36
2023/03/25 08:35:03;;;;;;;11.70;3.35;;;;;;;8.19;100.00;100305.09;5055607;28;20106;-36
2023/03/25 08:37:29;;;;;;;12.15;3.70;;;;;;;8.13;100.00;100300.63;5056419;28;20469;-36
2023/03/25 08:39:55;;;;;;;11.32;2.70;;;;;;;8.14;100.00;100299.59;5056211;28;20048;-36
2023/03/25 08:42:20;;;;;;;9.90;3.00;;;;;;;8.11;100.00;100290.09;5056307;28;20021;-36
2023/03/25 08:44:45;;;;;;;13.50;3.17;;;;;;;8.12;100.00;100301.69;5055900;28;20035;-36
2023/03/25 08:47:11;;;;;;;9.87;2.73;;;;;;;8.06;100.00;100283.78;5055737;28;20267;-36
2023/03/25 08:49:36;;;;;;;11.82;2.97;;;;;;;8.12;100.00;100286.34;5056299;28;20056;-36
2023/03/25 08:52:03;;;;;;;8.67;3.40;;;;;;;8.31;100.00;100294.41;5055350;28;20033;-36
2023/03/25 08:54:29;;;;;;;8.30;2.88;;;;;;;8.31;100.00;100291.69;5055514;28;20025;-37
2023/03/25 08:56:54;;;;;;;;;;;;;;;8.39;100.00;100286.81;5055525;28;20021;-36
2023/03/25 08:59:20;;;;;;;10.35;3.25;;;;;;;8.40;100.00;100299.25;5055097;28;20011;-36
2023/03/25 09:01:46;;;;;;;15.88;4.38;;;;;;;8.52;100.00;100291.19;5054920;28;20041;-36
2023/03/25 09:04:11;;;;;;;94.50;14.80;;;;;;;8.72;100.00;100293.56;5055271;28;20029;-37
2023/03/25 09:06:38;;;;;;;13.57;3.30;;;;;;;8.82;100.00;100296.50;5054907;28;20495;-36
2023/03/25 09:09:04;;;;;;;16.10;3.63;;;;;;;8.91;100.00;100294.31;5055672;28;20020;-37
2023/03/25 09:11:31;;;;;;;17.10;3.92;;;;;;;9.10;100.00;100289.63;5054762;28;20029;-36
2023/03/25 09:13:56;;;;;;;11.55;3.25;;;;;;;9.14;100.00;100271.91;5055060;28;20044;-36
2023/03/25 09:16:21;;;;;;;9.77;3.20;;;;;;;9.33;100.00;100283.41;5055402;28;20025;-36
2023/03/25 09:18:47;;;;;;;13.53;3.37;;;;;;;9.40;100.00;100270.59;5054861;28;20112;-36
2023/03/25 09:21:12;;;;;;;11.60;3.20;;;;;;;9.55;100.00;100269.03;5055661;28;20357;-36
2023/03/25 09:23:37;;;;;;;15.03;3.67;;;;;;;9.70;100.00;100286.59;5054760;28;20102;-36
2023/03/25 09:26:04;;;;;;;11.53;4.40;;;;;;;9.80;100.00;100276.81;5055079;28;20373;-36
2023/03/25 09:28:29;;;;;;;;;;;;;;;9.98;100.00;100275.03;5055353;28;20108;-36
2023/03/25 09:30:55;;;;;;;11.98;2.95;;;;;;;10.00;100.00;100278.28;5055723;28;19948;-36
2023/03/25 09:33:21;;;;;;;13.77;3.95;;;;;;;10.09;100.00;100281.44;5054586;28;20499;-36
2023/03/25 09:35:47;;;;;;;16.25;3.40;;;;;;;9.97;100.00;100285.00;5054841;28;20037;-36
2023/03/25 09:38:13;;;;;;;11.93;3.25;;;;;;;10.11;100.00;100293.66;5054790;28;20076;-36
2023/03/25 09:40:43;;;;;;;17.07;3.37;;;;;;;10.13;100.00;100290.69;5054745;28;20041;-36
2023/03/25 09:43:20;;;;;;;12.13;3.55;;;;;;;10.04;100.00;100263.25;5055094;28;20755;-36
2023/03/25 09:45:47;;;;;;;12.10;3.25;;;;;;;10.17;100.00;100281.06;5054367;28;20032;-36
2023/03/25 09:48:15;;;;;;;9.88;3.35;;;;;;;10.14;100.00;100287.75;5054297;28;20029;-36
2023/03/25 09:50:43;;;;;;;14.70;3.38;;;;;;;9.99;100.00;100298.25;5055066;28;20048;-36
2023/03/25 09:53:21;;;;;;;16.70;5.03;;;;;;;9.80;100.00;100286.81;5054378;28;20051;-36
2023/03/25 09:55:48;;;;;;;13.20;4.07;;;;;;;9.79;100.00;100298.69;5053237;28;20072;-36
2023/03/25 09:58:27;;;;;;;15.82;4.53;;;;;;;9.69;100.00;100310.09;5053956;28;20404;-35
2023/03/25 10:01:11;;;;;;;13.00;3.38;;;;;;;9.58;100.00;100296.63;5053977;28;20049;-36
2023/03/25 10:03:53;;;;;;;10.68;2.83;;;;;;;9.48;100.00;100308.03;5053635;28;20040;-36
2023/03/25 10:06:25;;;;;;;16.75;4.65;;;;;;;9.30;100.00;100298.19;5054244;28;20043;-36
2023/03/25 10:09:09;;;;;;;15.90;4.53;;;;;;;9.36;100.00;100316.13;5054524;28;20369;-37
2023/03/25 10:12:06;;;;;;;15.45;4.22;;;;;;;9.29;100.00;100318.13;5054661;28;20381;-35
2023/03/25 10:14:53;;;;;;;11.05;3.75;;;;;;;9.24;100.00;100320.72;5031324;28;20032;-35
2023/03/25 10:18:06;;;;;;;17.58;4.00;;;;;;;9.32;100.00;100317.66;5054595;28;20044;-35
2023/03/25 10:20:47;;;;;;;13.18;3.47;;;;;;;9.49;100.00;100318.56;5022275;28;20040;-35
2023/03/25 10:23:46;;;;;;;10.40;3.08;;;;;;;9.63;100.00;100340.75;5053896;28;20036;-35
2023/03/25 10:26:18;;;;;;;11.23;3.30;;;;;;;9.47;100.00;100323.41;5053458;28;20373;-35
2023/03/25 10:28:51;;;;;;;10.90;2.92;;;;;;;9.35;100.00;100344.16;5053555;28;20040;-37
2023/03/25 10:31:19;;;;;;;11.57;3.20;;;;;;;9.22;100.00;100342.53;5053903;28;20033;-36
2023/03/25 10:33:53;;;;;;;13.20;3.50;;;;;;;9.12;100.00;100327.97;5053975;28;20044;-36
2023/03/25 10:36:32;;;;;;;12.15;3.20;;;;;;;9.13;100.00;100324.25;5053863;28;20029;-36
2023/03/25 10:39:00;;;;;;;12.50;3.25;;;;;;;9.15;100.00;100333.72;5052522;28;20029;-36
2023/03/25 10:41:34;;;;;;;16.65;4.32;;;;;;;9.15;100.00;100339.13;5053272;28;20029;-36
2023/03/25 10:44:00;;;;;;;20.95;4.35;;;;;;;9.14;100.00;100342.06;5052537;28;20381;-35
2023/03/25 10:46:31;;;;;;;14.25;3.88;;;;;;;9.07;100.00;100330.53;5053591;28;20063;-36
2023/03/25 10:48:57;;;;;;;12.63;3.72;;;;;;;9.18;100.00;100343.25;5053794;28;20029;-36
2023/03/25 10:51:27;;;;;;;16.20;3.75;;;;;;;9.19;100.00;100334.09;5053512;28;20492;-36
2023/03/25 10:53:53;;;;;;;12.80;3.10;;;;;;;9.20;100.00;100341.13;5053974;28;20025;-36
2023/03/25 10:56:41;;;;;;;16.27;4.50;;;;;;;9.25;100.00;100343.94;5053822;28;20036;-36
2023/03/25 10:59:18;;;;;;;14.80;3.45;;;;;;;9.24;100.00;100351.22;5053436;28;20041;-36
2023/03/25 11:01:44;;;;;;;17.83;4.03;;;;;;;9.26;100.00;100334.78;5051883;28;20049;-36
2023/03/25 11:04:16;;;;;;;14.20;3.40;;;;;;;9.34;100.00;100341.72;5051016;28;20040;-36
2023/03/25 11:06:51;;;;;;;14.45;3.75;;;;;;;9.43;100.00;100338.41;5053204;28;20037;-36
2023/03/25 11:09:31;;;;;;;13.60;3.80;;;;;;;9.53;100.00;100340.53;5053187;28;20033;-36
2023/03/25 11:12:00;;;;;;;10.20;2.95;;;;;;;9.55;100.00;100327.59;5053239;28;20040;-36
2023/03/25 11:14:27;;;;;;;13.15;3.38;;;;;;;9.60;100.00;100335.81;5052191;28;20025;-36
2023/03/25 11:17:02;;;;;;;11.27;3.10;;;;;;;9.67;100.00;100338.41;5052345;28;20043;-36
2023/03/25 11:19:51;;;;;;;10.30;2.60;;;;;;;9.79;100.00;100347.28;5052945;28;20148;-36
2023/03/25 11:22:30;;;;;;;8.75;2.10;;;;;;;9.81;100.00;100342.50;5046338;28;20060;-36
2023/03/25 11:25:28;;;;;;;12.93;2.97;;;;;;;10.00;100.00;100343.97;5053213;28;20051;-36
2023/03/25 11:28:13;;;;;;;10.23;2.67;;;;;;;10.12;100.00;100340.41;5054874;28;20495;-36
2023/03/25 11:31:24;;;;;;;10.02;2.50;;;;;;;10.17;100.00;100348.59;5066065;28;20488;-36
2023/03/25 11:34:10;;;;;;;9.70;2.25;;;;;;;10.27;100.00;100356.94;5051231;28;20041;-36
2023/03/25 11:36:55;;;;;;;6.90;1.90;;;;;;;10.37;100.00;100372.53;5053397;28;20449;-36
2023/03/25 11:39:38;;;;;;;7.05;1.88;;;;;;;10.46;100.00;100377.31;5051617;28;20033;-36